Thunder radar more information blitzortung!


Radar de pluja more information rain snow radar


Visita la nostra xarxa de llocs de meteo:

Template documentation
and downloads

And another site



No particular awareness of the weather is required.    There are no Weather-warnings

Pagina Historial Weather Underground text

Diari Resum Octubre 27, 2017 Unitats:  Mètric    Imperial   Tant
« Previous Dia
SegĂźent Dia »
Diari Setmana Mensual Anual Personalitzada
  Maxima: Minima: Media:
Temperatura: -17.8 °C -10.6 °C -7.3 °C
Punt de rosada: -17.8 °C -12.3 °C -10.3 °C
Humitat: Humidity % 44 % 72 %
Wind Speed: 0 km/h 0 km/h 7.2 km/h
RĂ fegues de vent: 0 km/h - -
Vent:- - South
Pression baro: 0 hPa 34635.4 hPa -
Precipitacions: 0 mm    
Historical Graphs
 
 
Dades de taula per Octubre 27, 2017
Temps Temperatura Punt de rosada Pression baro Vent Wind Speed RĂ fegues de vent Humitat Rainfall Rate (Hourly)
-17.8 °C -17.8 °C 0 hPa Calm     Humidity % 0 mm
00:00 -9.6 °C -10.2 °C 34703.1 hPa Calm     93 % 0 mm
00:02 -8.7 °C -9.8 °C 34808.1 hPa SW 3.1 km/h 3.1 km/h 88 % 0 mm
00:07 -8.8 °C -9.9 °C 34808.1 hPa Calm     88 % 0 mm
00:10 -9.8 °C -10.6 °C 34703.1 hPa SW 2.6 km/h 5.1 km/h 92 % 0 mm
00:12 -8.8 °C -9.8 °C 34808.1 hPa SW 3.1 km/h   89 % 0 mm
00:17 -8.8 °C -9.8 °C 34808.1 hPa SW 4.2 km/h 4.2 km/h 89 % 0 mm
00:20 -9.8 °C -10.6 °C 34740.4 hPa SW 2.6 km/h 5.1 km/h 92 % 0 mm
00:30 -9.7 °C -10.3 °C 34740.4 hPa Calm   2.6 km/h 93 % 0 mm
00:40 -9.7 °C -10.3 °C 34740.4 hPa Calm     93 % 0 mm
00:50 -9.7 °C -10.3 °C 34740.4 hPa Calm     93 % 0 mm
01:00 -9.7 °C -10.3 °C 34740.4 hPa Calm     93 % 0 mm
01:10 -9.8 °C -10.4 °C 34740.4 hPa Calm     93 % 0 mm
01:20 -9.8 °C -10.4 °C 34740.4 hPa Calm     93 % 0 mm
01:30 -9.9 °C -10.5 °C 34740.4 hPa Calm     93 % 0 mm
01:40 -10 °C -10.6 °C 34740.4 hPa Calm     93 % 0 mm
01:50 -10.1 °C -10.7 °C 34740.4 hPa Calm     93 % 0 mm
02:00 -10.1 °C -10.7 °C 34740.4 hPa Calm     93 % 0 mm
02:10 -10.2 °C -10.8 °C 34740.4 hPa ESE 2.6 km/h 5.1 km/h 93 % 0 mm
02:20 -10.2 °C -10.8 °C 34740.4 hPa Calm     93 % 0 mm
02:30 -10.3 °C -10.9 °C 34740.4 hPa Calm   2.6 km/h 93 % 0 mm
02:40 -10.4 °C -11 °C 34740.4 hPa NNW 2.6 km/h 5.1 km/h 93 % 0 mm
02:50 -10.4 °C -11.2 °C 34740.4 hPa Calm   2.6 km/h 92 % 0 mm
03:00 -10.4 °C -11.2 °C 34740.4 hPa Calm   5.1 km/h 92 % 0 mm
03:10 -10.4 °C -11.1 °C 34740.4 hPa Calm     93 % 0 mm
03:20 -10.6 °C -11.3 °C 34740.4 hPa Calm   5.1 km/h 92 % 0 mm
03:30 -10.6 °C -11.2 °C 34740.4 hPa Calm   2.6 km/h 93 % 0 mm
03:40 -10.5 °C -11.1 °C 34740.4 hPa Calm     93 % 0 mm
03:50 -10.4 °C -11 °C 34740.4 hPa Calm     93 % 0 mm
04:00 -10.3 °C -10.8 °C 34703.1 hPa Calm     94 % 0 mm
04:10 -10.2 °C -10.7 °C 34703.1 hPa Calm     94 % 0 mm
04:20 -10.1 °C -10.7 °C 34740.4 hPa Calm     94 % 0 mm
04:30 -10 °C -10.6 °C 34740.4 hPa Calm     93 % 0 mm
04:40 -9.8 °C -10.3 °C 34740.4 hPa Calm     94 % 0 mm
04:50 -9.4 °C -10 °C 34740.4 hPa WNW 2.6 km/h 2.6 km/h 93 % 0 mm
05:00 -9.1 °C -9.8 °C 34740.4 hPa Calm     92 % 0 mm
05:10 -9.1 °C -9.9 °C 34740.4 hPa Calm   5.1 km/h 90 % 0 mm
05:20 -8.8 °C -9.9 °C 34774.2 hPa Calm   2.6 km/h 88 % 0 mm
10:30 -8.6 °C -9.9 °C 34740.4 hPa SW 6 km/h 6 km/h 85 % 0 mm
10:35 -8.5 °C -9.9 °C 34740.4 hPa SW 6 km/h   85 % 0 mm
10:40 -8.3 °C -9.8 °C 34740.4 hPa South 5.6 km/h 5.6 km/h 84 % 0 mm
10:45 -8.1 °C -9.7 °C 34740.4 hPa WSW 6.8 km/h 6.8 km/h 83 % 0 mm
10:50 -8.2 °C -9.9 °C 34740.4 hPa SW 6.8 km/h 6.8 km/h 82 % 0 mm
10:55 -7.9 °C -9.7 °C 34740.4 hPa SSW 6 km/h 6 km/h 81 % 0 mm
11:00 -7.6 °C -9.5 °C 34740.4 hPa ESE 6.3 km/h 6.3 km/h 80 % 0 mm
11:05 -7.6 °C -9.7 °C 34740.4 hPa ESE 6 km/h 6 km/h 78 % 0 mm
11:10 -7.4 °C -9.6 °C 34703.1 hPa NE 6 km/h 6 km/h 78 % 0 mm
11:15 -7.3 °C -9.4 °C 34703.1 hPa ENE 6 km/h 6 km/h 78 % 0 mm
11:20 -7.1 °C -9.5 °C 34703.1 hPa ENE 3.7 km/h 3.7 km/h 76 % 0 mm
11:25 -7 °C -9.4 °C 34703.1 hPa ENE 6.8 km/h 6.8 km/h 76 % 0 mm
11:30 -7.1 °C -9.6 °C 34703.1 hPa NE 6 km/h 6 km/h 75 % 0 mm
11:35 -7 °C -9.6 °C 34703.1 hPa ENE 9 km/h 9 km/h 75 % 0 mm
11:40 -6.8 °C -9.2 °C 34740.4 hPa ENE 6 km/h 6 km/h 76 % 0 mm
11:45 -6.8 °C -9.3 °C 34740.4 hPa NNE 9 km/h 9 km/h 75 % 0 mm
11:50 -6.8 °C -9.3 °C 34740.4 hPa NNE 3.1 km/h 3.1 km/h 75 % 0 mm
11:55 -6.8 °C -9.5 °C 34740.4 hPa NNE 11.9 km/h 11.9 km/h 74 % 0 mm
12:00 -6.7 °C -9.5 °C 34740.4 hPa East 12.2 km/h 12.2 km/h 73 % 0 mm
12:05 -6.7 °C -9.6 °C 34740.4 hPa NNE 11.9 km/h 11.9 km/h 72 % 0 mm
12:10 -6.6 °C -9.8 °C 34740.4 hPa ENE 6.3 km/h 6.3 km/h 70 % 0 mm
12:15 -6.5 °C -9.8 °C 34740.4 hPa NE 6.3 km/h 6.3 km/h 69 % 0 mm
12:20 -6.4 °C -9.6 °C 34740.4 hPa East 11.1 km/h 11.1 km/h 70 % 0 mm
12:25 -6.3 °C -9.6 °C 34740.4 hPa East 9 km/h 9 km/h 69 % 0 mm
12:30 -6.3 °C -9.8 °C 34740.4 hPa NNE 11.9 km/h 11.9 km/h 67 % 0 mm
12:35 -6.1 °C -9.3 °C 34740.4 hPa ENE 6.3 km/h 6.3 km/h 69 % 0 mm
12:40 -6 °C -9.6 °C 34740.4 hPa ENE 6.3 km/h 6.3 km/h 67 % 0 mm
12:45 -5.9 °C -9.3 °C 34740.4 hPa East 6 km/h 6 km/h 68 % 0 mm
12:50 -5.7 °C -9.3 °C 34740.4 hPa ENE 9 km/h 9 km/h 67 % 0 mm
12:55 -5.8 °C -9.3 °C 34703.1 hPa East 9 km/h 9 km/h 67 % 0 mm
12:56 -5.7 °C -9.3 °C 34703.1 hPa East 6 km/h 6 km/h 67 % 0 mm
13:01 -5.6 °C -9.3 °C 34703.1 hPa NNE 6 km/h 6 km/h 66 % 0 mm
13:06 -5.5 °C -9.3 °C 34703.1 hPa NNE 7.6 km/h 7.6 km/h 65 % 0 mm
13:11 -5.4 °C -9.2 °C 34703.1 hPa North 6 km/h   65 % 0 mm
13:16 -5.3 °C -9.3 °C 34703.1 hPa ENE 6.8 km/h 6.8 km/h 64 % 0 mm
13:21 -5.2 °C -9.3 °C 34703.1 hPa East 3.1 km/h 4.2 km/h 63 % 0 mm
13:26 -5.1 °C -9.4 °C 34669.3 hPa SE 6 km/h 6 km/h 62 % 0 mm
13:31 -4.9 °C -9.1 °C 34669.3 hPa NW 10.3 km/h 10.3 km/h 63 % 0 mm
13:36 -4.8 °C -9.3 °C 34669.3 hPa SSE 9 km/h 9 km/h 61 % 0 mm
13:41 -4.6 °C -9.1 °C 34635.4 hPa North 9 km/h 9 km/h 61 % 0 mm
13:46 -4.4 °C -9.2 °C 34635.4 hPa NNW 9 km/h 9 km/h 59 % 0 mm
13:51 -4.6 °C -9.3 °C 34635.4 hPa West 11.1 km/h 11.1 km/h 59 % 0 mm
13:56 -4.5 °C -9.4 °C 34669.3 hPa WNW 9 km/h 9 km/h 58 % 0 mm
14:01 -4.4 °C -9.9 °C 34669.3 hPa WNW 6 km/h 6 km/h 54 % 0 mm
14:06 -4.3 °C -9.8 °C 34669.3 hPa WSW 9.3 km/h 9.3 km/h 54 % 0 mm
14:11 -4.1 °C -9.5 °C 34669.3 hPa West 6.8 km/h 6.8 km/h 55 % 0 mm
14:16 -4.1 °C -9.6 °C 34669.3 hPa West 11.9 km/h 11.9 km/h 54 % 0 mm
14:21 -4.1 °C -9.7 °C 34669.3 hPa West 15 km/h 15 km/h 53 % 0 mm
14:26 -3.9 °C -9.6 °C 34669.3 hPa SW 6.8 km/h 6.8 km/h 53 % 0 mm
14:31 -4.1 °C -9.9 °C 34669.3 hPa West 9 km/h 9 km/h 52 % 0 mm
14:36 -4.2 °C -10.4 °C 34669.3 hPa SW 15 km/h 15 km/h 50 % 0 mm
14:41 -4.3 °C -10.4 °C 34669.3 hPa WSW 20.9 km/h 20.9 km/h 50 % 0 mm
14:46 -4.3 °C -10.7 °C 34669.3 hPa SW 15 km/h 15 km/h 49 % 0 mm
14:51 -4.4 °C -10.9 °C 34669.3 hPa WNW 17.9 km/h 17.9 km/h 48 % 0 mm
14:56 -4.2 °C -10.6 °C 34635.4 hPa North 6 km/h 6 km/h 49 % 0 mm
15:01 -4.2 °C -10.5 °C 34635.4 hPa WSW 11.9 km/h 11.9 km/h 49 % 0 mm
15:11 -4.1 °C -10.4 °C 34635.4 hPa West 9 km/h 9 km/h 49 % 0 mm
15:16 -4.1 °C -10.4 °C 34635.4 hPa West 9 km/h 9 km/h 49 % 0 mm
15:21 -4.2 °C -10.7 °C 34635.4 hPa West 15 km/h 15 km/h 48 % 0 mm
15:26 -4.2 °C -10.7 °C 34635.4 hPa SW 15 km/h 15 km/h 48 % 0 mm
15:31 -4.1 °C -10.7 °C 34635.4 hPa WSW 11.9 km/h 11.9 km/h 48 % 0 mm
15:36 -4.1 °C -10.6 °C 34635.4 hPa West 11.9 km/h 11.9 km/h 48 % 0 mm
15:41 -3.9 °C -10.5 °C 34635.4 hPa West 20.9 km/h 20.9 km/h 48 % 0 mm
15:46 -4 °C -10.7 °C 34635.4 hPa WSW 9.8 km/h 9.8 km/h 47 % 0 mm
15:51 -4.1 °C -10.8 °C 34635.4 hPa West 20.9 km/h 20.9 km/h 47 % 0 mm
15:56 -4.1 °C -11 °C 34635.4 hPa West 23.8 km/h 23.8 km/h 46 % 0 mm
16:01 -4.1 °C -11 °C 34635.4 hPa WSW 12.7 km/h 12.7 km/h 46 % 0 mm
16:06 -4.1 °C -11 °C 34635.4 hPa WSW 17.9 km/h 17.9 km/h 46 % 0 mm
16:11 -4.1 °C -11 °C 34635.4 hPa WSW 15 km/h 15 km/h 46 % 0 mm
16:16 -4.1 °C -11 °C 34635.4 hPa WNW 9 km/h 9 km/h 46 % 0 mm
16:21 -4.1 °C -11 °C 34635.4 hPa SW 6 km/h 6 km/h 46 % 0 mm
16:26 -4.1 °C -10.9 °C 34635.4 hPa West 11.9 km/h 11.9 km/h 46 % 0 mm
16:31 -4.1 °C -11 °C 34635.4 hPa WSW 17.9 km/h 17.9 km/h 46 % 0 mm
16:36 -4.2 °C -11.2 °C 34635.4 hPa WSW 15 km/h 15 km/h 45 % 0 mm
16:41 -4.2 °C -11.3 °C 34635.4 hPa WSW 11.9 km/h 11.9 km/h 45 % 0 mm
16:46 -4.1 °C -11.2 °C 34635.4 hPa West 9 km/h 9 km/h 45 % 0 mm
16:51 -4.1 °C -11.2 °C 34635.4 hPa SW 9.8 km/h 9.8 km/h 45 % 0 mm
16:56 -4.2 °C -11.2 °C 34635.4 hPa WNW 14 km/h 14 km/h 45 % 0 mm
17:01 -4.1 °C -11.2 °C 34635.4 hPa WSW 9 km/h 9 km/h 45 % 0 mm
17:06 -4.2 °C -11.2 °C 34635.4 hPa WSW 9.8 km/h 9.8 km/h 45 % 0 mm
17:11 -4.2 °C -11.2 °C 34635.4 hPa WSW 11.1 km/h 11.1 km/h 45 % 0 mm
17:16 -4.2 °C -11.5 °C 34635.4 hPa SW 12.7 km/h 12.7 km/h 44 % 0 mm
17:21 -4.2 °C -11.3 °C 34635.4 hPa WSW 15.6 km/h 15.6 km/h 45 % 0 mm
17:26 -4.3 °C -11.5 °C 34635.4 hPa WSW 15 km/h 15 km/h 44 % 0 mm
17:31 -4.2 °C -11.5 °C 34635.4 hPa WSW 6 km/h 6 km/h 44 % 0 mm
17:36 -4.3 °C -11.5 °C 34635.4 hPa SW 11.9 km/h 11.9 km/h 44 % 0 mm
17:41 -4.3 °C -11.6 °C 34635.4 hPa SW 17.9 km/h 17.9 km/h 44 % 0 mm
17:46 -4.3 °C -11.6 °C 34635.4 hPa West 6 km/h 6 km/h 44 % 0 mm
17:51 -4.4 °C -11.7 °C 34635.4 hPa SW 9 km/h 9 km/h 44 % 0 mm
17:56 -4.7 °C -11.9 °C 34669.3 hPa ENE 6.3 km/h 6.3 km/h 44 % 0 mm
18:03 -5.3 °C -11.6 °C 34669.3 hPa ENE 11.9 km/h 11.9 km/h 49 % 0 mm
18:08 -5.5 °C -11.2 °C 34669.3 hPa NE 11.9 km/h 11.9 km/h 52 % 0 mm
18:13 -5.8 °C -10.9 °C 34669.3 hPa East 15.6 km/h 15.6 km/h 56 % 0 mm
18:18 -6 °C -10.5 °C 34669.3 hPa ESE 9 km/h 9 km/h 60 % 0 mm
18:23 -6.2 °C -10.5 °C 34669.3 hPa East 17.9 km/h 17.9 km/h 61 % 0 mm
18:28 -6.3 °C -10.3 °C 34669.3 hPa NE 15.3 km/h 15.3 km/h 63 % 0 mm
18:33 -6.4 °C -10.3 °C 34669.3 hPa East 20.9 km/h 20.9 km/h 64 % 0 mm
18:38 -6.5 °C -10.2 °C 34669.3 hPa ENE 15 km/h 15 km/h 66 % 0 mm
18:43 -6.6 °C -10.1 °C 34669.3 hPa ESE 16.1 km/h 16.1 km/h 67 % 0 mm
18:48 -6.7 °C -10.2 °C 34669.3 hPa ESE 12.7 km/h 12.7 km/h 67 % 0 mm
18:53 -6.8 °C -10.1 °C 34669.3 hPa ENE 20.3 km/h 20.3 km/h 69 % 0 mm
18:58 -6.9 °C -9.9 °C 34669.3 hPa East 15 km/h 15 km/h 71 % 0 mm
19:03 -7 °C -10 °C 34669.3 hPa ESE 15 km/h 15 km/h 71 % 0 mm
19:08 -7.1 °C -9.9 °C 34669.3 hPa ENE 11.9 km/h 11.9 km/h 72 % 0 mm
19:13 -7.1 °C -9.9 °C 34669.3 hPa ENE 9 km/h 9 km/h 72 % 0 mm
19:18 -7.2 °C -9.9 °C 34669.3 hPa East 15 km/h 15 km/h 73 % 0 mm
19:23 -7.2 °C -9.8 °C 34669.3 hPa ENE 16.1 km/h 16.1 km/h 74 % 0 mm
19:28 -7.3 °C -9.8 °C 34669.3 hPa East 15 km/h 15 km/h 75 % 0 mm
19:33 -7.3 °C -9.7 °C 34669.3 hPa ENE 11.9 km/h 11.9 km/h 76 % 0 mm
19:38 -7.3 °C -9.8 °C 34669.3 hPa ENE 8.5 km/h 8.5 km/h 75 % 0 mm
19:43 -7.4 °C -9.8 °C 34635.4 hPa NNE 6.8 km/h 6.8 km/h 76 % 0 mm
19:48 -7.4 °C -9.8 °C 34635.4 hPa ENE 11.9 km/h 11.9 km/h 76 % 0 mm
19:53 -7.4 °C -9.7 °C 34635.4 hPa NNE 6 km/h 6 km/h 77 % 0 mm
19:58 -7.5 °C -9.8 °C 34669.3 hPa ENE 9 km/h 9 km/h 77 % 0 mm
20:00 -8.7 °C -9.9 °C 34669.3 hPa Calm     87 % 0 mm
20:03 -7.6 °C -9.8 °C 34669.3 hPa NNE 11.9 km/h 11.9 km/h 77 % 0 mm
20:08 -7.5 °C -9.7 °C 34669.3 hPa NNE 11.9 km/h 11.9 km/h 78 % 0 mm
20:10 -8.7 °C -9.9 °C 34669.3 hPa WSW 2.6 km/h 5.1 km/h 86 % 0 mm
20:13 -7.5 °C -9.7 °C 34669.3 hPa ENE 15 km/h 15 km/h 78 % 0 mm
20:18 -7.6 °C -9.7 °C 34669.3 hPa NNE 11.9 km/h 11.9 km/h 78 % 0 mm
20:20 -8.7 °C -9.9 °C 34669.3 hPa Calm   2.6 km/h 86 % 0 mm
20:23 -7.6 °C -9.7 °C 34703.1 hPa ENE 11.9 km/h 11.9 km/h 78 % 0 mm
20:28 -7.6 °C -9.7 °C 34703.1 hPa ENE 11.9 km/h 11.9 km/h 79 % 0 mm
20:30 -8.7 °C -10.1 °C 34669.3 hPa WSW 5.1 km/h 5.1 km/h 86 % 0 mm
20:33 -7.7 °C -9.7 °C 34703.1 hPa ENE 14 km/h 14 km/h 79 % 0 mm
20:38 -7.7 °C -9.8 °C 34703.1 hPa ENE 11.9 km/h 11.9 km/h 79 % 0 mm
20:40 -8.8 °C -10.1 °C 34669.3 hPa WSW 2.6 km/h 5.1 km/h 86 % 0 mm
20:43 -7.7 °C -9.8 °C 34703.1 hPa ENE 9 km/h 9 km/h 79 % 0 mm
20:48 -7.8 °C -9.7 °C 34703.1 hPa East 6 km/h 6 km/h 80 % 0 mm
20:53 -7.8 °C -9.8 °C 34703.1 hPa NNE 6.3 km/h 6.3 km/h 79 % 0 mm
20:58 -7.9 °C -9.8 °C 34703.1 hPa NNW 3.7 km/h 3.7 km/h 80 % 0 mm
21:00 -8.7 °C -10.2 °C 34669.3 hPa West 2.6 km/h 7.7 km/h 84 % 0 mm
21:08 -7.9 °C -9.8 °C 34703.1 hPa SW 6 km/h 6 km/h 80 % 0 mm
21:10 -8.6 °C -10.2 °C 34669.3 hPa Calm   7.7 km/h 83 % 0 mm
21:13 -8 °C -9.9 °C 34703.1 hPa SW 6 km/h 6 km/h 80 % 0 mm
21:18 -8.1 °C -10 °C 34703.1 hPa WSW 6.3 km/h   80 % 0 mm
21:20 -8.7 °C -10.5 °C 34669.3 hPa WSW 7.7 km/h 12.9 km/h 81 % 0 mm
21:23 -8.1 °C -9.9 °C 34703.1 hPa SSE 9 km/h 9 km/h 81 % 0 mm
21:28 -8.2 °C -10.2 °C 34703.1 hPa SW 9 km/h 9 km/h 79 % 0 mm
21:30 -8.8 °C -10.8 °C 34669.3 hPa West 12.9 km/h 15.6 km/h 79 % 0 mm
21:33 -8.3 °C -10.2 °C 34703.1 hPa SW 6 km/h 6 km/h 80 % 0 mm
21:38 -8.4 °C -10.2 °C 34703.1 hPa SW 6 km/h 6 km/h 81 % 0 mm
21:40 -8.9 °C -10.9 °C 34669.3 hPa WSW 7.7 km/h 12.9 km/h 79 % 0 mm
21:43 -8.4 °C -10.4 °C 34703.1 hPa SW 6 km/h 6 km/h 80 % 0 mm
21:48 -8.4 °C -10.3 °C 34703.1 hPa WSW 4.2 km/h   81 % 0 mm
21:50 -8.9 °C -11.2 °C 34703.1 hPa West 7.7 km/h 10.3 km/h 77 % 0 mm
21:53 -8.4 °C -10.3 °C 34703.1 hPa SW 6.3 km/h 6.3 km/h 81 % 0 mm
21:58 -8.5 °C -10.2 °C 34703.1 hPa SW 6 km/h 6 km/h 82 % 0 mm
22:00 -9 °C -11.3 °C 34669.3 hPa West 5.1 km/h 7.7 km/h 76 % 0 mm
22:03 -8.5 °C -10.1 °C 34703.1 hPa Calm     83 % 0 mm
22:08 -8.5 °C -10.1 °C 34703.1 hPa Calm     83 % 0 mm
22:10 -9.1 °C -11.6 °C 34669.3 hPa Calm   7.7 km/h 75 % 0 mm
22:13 -8.4 °C -9.9 °C 34703.1 hPa Calm     84 % 0 mm
22:18 -8.4 °C -9.9 °C 34703.1 hPa Calm     84 % 0 mm
22:20 -9.2 °C -11.7 °C 34669.3 hPa WSW 2.6 km/h 2.6 km/h 75 % 0 mm
22:23 -8.4 °C -9.9 °C 34703.1 hPa SW 5.1 km/h   84 % 0 mm
22:28 -8.5 °C -10.1 °C 34703.1 hPa WSW 6 km/h 6 km/h 83 % 0 mm
22:30 -9.3 °C -11.8 °C 34669.3 hPa Calm   5.1 km/h 75 % 0 mm
22:33 -8.5 °C -10.1 °C 34703.1 hPa WSW 3.1 km/h 3.7 km/h 83 % 0 mm
22:38 -8.5 °C -10.1 °C 34703.1 hPa WSW 6 km/h 6 km/h 83 % 0 mm
22:40 -9.4 °C -11.9 °C 34669.3 hPa Calm   2.6 km/h 75 % 0 mm
22:43 -8.5 °C -10.1 °C 34703.1 hPa WSW 6 km/h 6 km/h 83 % 0 mm
22:48 -8.4 °C -9.9 °C 34703.1 hPa West 6 km/h   84 % 0 mm
22:50 -9.5 °C -11.9 °C 34669.3 hPa Calm   10.3 km/h 75 % 0 mm
22:53 -8.3 °C -10.1 °C 34703.1 hPa West 9 km/h 9 km/h 82 % 0 mm
22:58 -8.3 °C -9.9 °C 34703.1 hPa West 3.1 km/h 3.1 km/h 83 % 0 mm
23:00 -9.8 °C -12.1 °C 34669.3 hPa West 2.6 km/h 7.7 km/h 76 % 0 mm
23:03 -8.3 °C -9.8 °C 34703.1 hPa Calm     84 % 0 mm
23:08 -8.3 °C -9.8 °C 34703.1 hPa NW 3.1 km/h   84 % 0 mm
23:10 -9.8 °C -12.1 °C 34669.3 hPa NW 5.1 km/h 10.3 km/h 76 % 0 mm
23:13 -8.3 °C -9.8 °C 34703.1 hPa NNW 3.1 km/h   84 % 0 mm
23:18 -8.3 °C -9.8 °C 34703.1 hPa WNW 6 km/h 6 km/h 84 % 0 mm
23:20 -9.7 °C -12 °C 34669.3 hPa NNE 5.1 km/h 7.7 km/h 76 % 0 mm
23:23 -8.3 °C -9.8 °C 34669.3 hPa SW 6 km/h 6 km/h 84 % 0 mm
23:28 -8.4 °C -9.9 °C 34669.3 hPa Calm     84 % 0 mm
23:30 -9.8 °C -12.1 °C 34669.3 hPa North 2.6 km/h 5.1 km/h 76 % 0 mm
23:33 -8.3 °C -9.8 °C 34669.3 hPa SW 11.9 km/h 11.9 km/h 84 % 0 mm
23:38 -8.4 °C -9.9 °C 34703.1 hPa SW 3.1 km/h 3.1 km/h 84 % 0 mm
23:40 -9.9 °C -12.1 °C 34669.3 hPa NNW 5.1 km/h 7.7 km/h 77 % 0 mm
23:43 -8.5 °C -10 °C 34703.1 hPa SW 3.1 km/h 3.1 km/h 84 % 0 mm
23:48 -8.5 °C -9.9 °C 34703.1 hPa Calm     85 % 0 mm
23:50 -10.1 °C -12.3 °C 34669.3 hPa Calm   5.1 km/h 77 % 0 mm
23:53 -8.6 °C -9.9 °C 34669.3 hPa Calm     85 % 0 mm
23:58 -8.6 °C -9.9 °C 34669.3 hPa SW 3.1 km/h   85 % 0 mm
Meteo Sesrovires
Elogis d' Weather Underground - 1.5 mb

Guio original per  Jim McMurry - jmcmurry@mwt.net Adaptat per a la plantilla per  Wim van der Kuil - Leuven-Template.eu

Trobareu la nostra informacio del temps tambe a:

Weather Underground

AWEKAS